Wetterdaten: Woche 14.04.08 - 20.04.08 (KW16)
Datum Zeit Temperatur Luftfeuchte Luftdruck Niederschlag Wind Richtung Sonnenschein Solar Taupunkt Windchill Windben
14.04.2008 00:00 6.6 C 83 % 1012.1 hPa 0.0 l/m 1.0 km/h (0 Bft) O-SO 0.00 h 0 W/m 3.8 C 6.6 C 1.8 km/h (1 Bft)
14.04.2008 01:00 6.0 C 85 % 1011.8 hPa 0.0 l/m 1.4 km/h (1 Bft) O-SO 0.00 h 0 W/m 3.6 C 5.9 C 2.2 km/h (1 Bft)
14.04.2008 02:00 5.6 C 87 % 1011.9 hPa 0.0 l/m 1.9 km/h (1 Bft) O-SO 0.00 h 0 W/m 3.7 C 5.4 C 3.9 km/h (1 Bft)
14.04.2008 03:00 6.2 C 83 % 1011.8 hPa 0.0 l/m 3.2 km/h (1 Bft) O 0.00 h 0 W/m 3.5 C 5.9 C 5.4 km/h (1 Bft)
14.04.2008 04:00 7.4 C 80 % 1011.9 hPa 0.0 l/m 0.3 km/h (0 Bft) O 0.00 h 0 W/m 4.2 C 7.4 C 1.1 km/h (0 Bft)
14.04.2008 05:00 7.6 C 82 % 1011.9 hPa 0.0 l/m 4.1 km/h (1 Bft) O 0.00 h 0 W/m 4.7 C 7.3 C 6.4 km/h (2 Bft)
14.04.2008 06:00 8.3 C 75 % 1012.2 hPa 0.0 l/m 12.3 km/h (3 Bft) W 0.00 h 7 W/m 4.1 C 6.2 C 20.1 km/h (4 Bft)
14.04.2008 07:00 8.0 C 75 % 1013.0 hPa 0.0 l/m 7.1 km/h (2 Bft) W 0.00 h 19 W/m 3.8 C 6.9 C 11.5 km/h (2 Bft)
14.04.2008 08:00 8.2 C 72 % 1013.6 hPa 0.0 l/m 8.8 km/h (2 Bft) W 0.00 h 90 W/m 3.4 C 6.8 C 13.0 km/h (3 Bft)
14.04.2008 09:00 8.2 C 71 % 1014.1 hPa 0.0 l/m 9.5 km/h (2 Bft) W 0.00 h 99 W/m 3.3 C 6.6 C 15.2 km/h (3 Bft)
14.04.2008 10:00 8.6 C 70 % 1014.6 hPa 0.0 l/m 7.4 km/h (2 Bft) W 0.00 h 140 W/m 3.4 C 7.6 C 11.2 km/h (2 Bft)
14.04.2008 11:00 8.1 C 76 % 1015.2 hPa 0.0 l/m 10.5 km/h (2 Bft) W 0.00 h 207 W/m 4.0 C 6.3 C 16.3 km/h (3 Bft)
14.04.2008 12:00 8.3 C 75 % 1015.2 hPa 0.2 l/m 10.1 km/h (2 Bft) W 0.13 h 247 W/m 4.2 C 6.8 C 16.0 km/h (3 Bft)
14.04.2008 13:00 7.9 C 78 % 1015.7 hPa 0.0 l/m 9.7 km/h (2 Bft) W 0.00 h 322 W/m 4.3 C 6.3 C 15.1 km/h (3 Bft)
14.04.2008 14:00 8.8 C 75 % 1015.6 hPa 0.0 l/m 8.6 km/h (2 Bft) W-SW 0.00 h 315 W/m 4.6 C 7.6 C 13.9 km/h (3 Bft)
14.04.2008 15:00 6.8 C 85 % 1016.0 hPa 0.8 l/m 8.9 km/h (2 Bft) S-SO 0.00 h 180 W/m 4.5 C 5.5 C 13.1 km/h (3 Bft)
14.04.2008 16:00 7.1 C 85 % 1015.8 hPa 0.2 l/m 4.6 km/h (1 Bft) S-SO 0.00 h 149 W/m 4.7 C 6.5 C 7.9 km/h (2 Bft)
14.04.2008 17:00 7.3 C 87 % 1015.7 hPa 0.0 l/m 1.4 km/h (1 Bft) SW 0.00 h 144 W/m 5.2 C 7.2 C 3.6 km/h (1 Bft)
14.04.2008 18:00 7.5 C 78 % 1016.2 hPa 0.0 l/m 6.0 km/h (2 Bft) W-SW 0.00 h 79 W/m 4.0 C 6.7 C 9.4 km/h (2 Bft)
14.04.2008 19:00 6.7 C 85 % 1016.4 hPa 0.0 l/m 1.7 km/h (1 Bft) S-SW 0.00 h 26 W/m 4.3 C 6.6 C 4.2 km/h (1 Bft)
14.04.2008 20:00 6.3 C 85 % 1016.9 hPa 0.0 l/m 1.0 km/h (0 Bft) SW 0.00 h 0 W/m 4.0 C 6.3 C 3.0 km/h (1 Bft)
14.04.2008 21:00 5.6 C 87 % 1017.6 hPa 0.2 l/m 7.7 km/h (2 Bft) W 0.00 h 0 W/m 3.7 C 4.1 C 12.4 km/h (3 Bft)
14.04.2008 22:00 4.9 C 92 % 1018.0 hPa 0.6 l/m 2.7 km/h (1 Bft) W-SW 0.00 h 0 W/m 3.7 C 4.5 C 4.8 km/h (1 Bft)
14.04.2008 23:00 4.9 C 93 % 1018.0 hPa 0.0 l/m 1.7 km/h (1 Bft) S 0.00 h 0 W/m 3.8 C 4.9 C 3.7 km/h (1 Bft)
15.04.2008 00:00 5.1 C 92 % 1018.1 hPa 0.0 l/m 5.7 km/h (1 Bft) W 0.00 h 0 W/m 3.9 C 4.0 C 8.8 km/h (2 Bft)
15.04.2008 01:00 5.0 C 90 % 1017.8 hPa 0.0 l/m 4.0 km/h (1 Bft) W-SW 0.00 h 0 W/m 3.5 C 4.5 C 6.8 km/h (2 Bft)
15.04.2008 02:00 4.8 C 89 % 1017.5 hPa 0.0 l/m 1.6 km/h (1 Bft) W-NW 0.00 h 0 W/m 3.1 C 4.7 C 3.0 km/h (1 Bft)
15.04.2008 03:00 4.9 C 88 % 1017.6 hPa 0.0 l/m 4.8 km/h (1 Bft) W 0.00 h 0 W/m 3.2 C 4.1 C 8.2 km/h (2 Bft)
15.04.2008 04:00 5.1 C 87 % 1017.7 hPa 0.0 l/m 6.4 km/h (2 Bft) W 0.00 h 0 W/m 3.1 C 3.8 C 10.1 km/h (2 Bft)
15.04.2008 05:00 5.1 C 86 % 1017.6 hPa 0.0 l/m 6.7 km/h (2 Bft) W 0.00 h 0 W/m 3.0 C 3.7 C 10.5 km/h (2 Bft)
15.04.2008 06:00 5.1 C 86 % 1017.6 hPa 0.0 l/m 7.4 km/h (2 Bft) W 0.00 h 0 W/m 3.0 C 3.5 C 11.4 km/h (2 Bft)
15.04.2008 07:00 5.1 C 86 % 1018.1 hPa 0.0 l/m 6.2 km/h (2 Bft) W 0.00 h 10 W/m 3.0 C 4.0 C 10.1 km/h (2 Bft)
15.04.2008 08:00 5.1 C 88 % 1018.6 hPa 0.0 l/m 7.7 km/h (2 Bft) W 0.00 h 31 W/m 3.2 C 3.4 C 12.0 km/h (2 Bft)
15.04.2008 09:00 5.1 C 89 % 1019.1 hPa 0.2 l/m 5.5 km/h (1 Bft) W 0.00 h 123 W/m 3.5 C 4.1 C 8.6 km/h (2 Bft)
15.04.2008 10:00 5.5 C 90 % 1019.4 hPa 0.2 l/m 4.4 km/h (1 Bft) W-SW 0.00 h 161 W/m 4.1 C 5.0 C 7.1 km/h (2 Bft)
15.04.2008 11:00 6.9 C 83 % 1019.3 hPa 0.0 l/m 9.3 km/h (2 Bft) W-SW 0.47 h 405 W/m 4.2 C 5.2 C 15.1 km/h (3 Bft)
15.04.2008 12:00 7.8 C 76 % 1019.2 hPa 0.0 l/m 12.0 km/h (2 Bft) W-SW 0.30 h 463 W/m 3.9 C 5.7 C 19.3 km/h (3 Bft)
15.04.2008 13:00 8.8 C 74 % 1019.1 hPa 0.0 l/m 16.2 km/h (3 Bft) W 1.00 h 817 W/m 4.3 C 6.3 C 24.8 km/h (4 Bft)
15.04.2008 14:00 9.0 C 72 % 1019.1 hPa 0.0 l/m 16.3 km/h (3 Bft) W 0.43 h 529 W/m 4.3 C 6.7 C 24.2 km/h (4 Bft)
15.04.2008 15:00 9.1 C 68 % 1019.3 hPa 0.0 l/m 16.5 km/h (3 Bft) W 0.13 h 339 W/m 3.6 C 6.7 C 24.6 km/h (4 Bft)
15.04.2008 16:00 8.2 C 72 % 1019.8 hPa 0.0 l/m 12.6 km/h (3 Bft) W 0.02 h 178 W/m 3.4 C 6.2 C 18.9 km/h (3 Bft)
15.04.2008 17:00 8.4 C 71 % 1020.2 hPa 0.0 l/m 6.8 km/h (2 Bft) W 0.22 h 204 W/m 3.5 C 7.4 C 10.7 km/h (2 Bft)
15.04.2008 18:00 9.4 C 64 % 1020.1 hPa 0.0 l/m 5.1 km/h (1 Bft) W 0.47 h 170 W/m 3.0 C 9.1 C 8.4 km/h (2 Bft)
15.04.2008 19:00 8.0 C 69 % 1020.3 hPa 0.0 l/m 5.3 km/h (1 Bft) W 0.00 h 29 W/m 2.6 C 7.4 C 8.8 km/h (2 Bft)
15.04.2008 20:00 7.1 C 73 % 1021.1 hPa 0.0 l/m 3.4 km/h (1 Bft) W 0.00 h 7 W/m 2.5 C 6.6 C 5.9 km/h (2 Bft)
15.04.2008 21:00 6.5 C 74 % 1021.8 hPa 0.0 l/m 4.5 km/h (1 Bft) W-NW 0.00 h 0 W/m 2.2 C 5.8 C 7.4 km/h (2 Bft)
15.04.2008 22:00 6.0 C 78 % 1022.0 hPa 0.0 l/m 1.9 km/h (1 Bft) W-NW 0.00 h 0 W/m 2.6 C 5.9 C 3.6 km/h (1 Bft)
15.04.2008 23:00 5.2 C 84 % 1022.2 hPa 0.0 l/m 0.6 km/h (0 Bft) S 0.00 h 0 W/m 2.6 C 5.2 C 1.7 km/h (1 Bft)
16.04.2008 00:00 4.8 C 85 % 1022.1 hPa 0.0 l/m 0.8 km/h (0 Bft) S-SW 0.00 h 0 W/m 2.5 C 4.8 C 1.6 km/h (1 Bft)
16.04.2008 01:00 4.7 C 88 % 1021.8 hPa 0.8 l/m 0.4 km/h (0 Bft) S-SW 0.00 h 0 W/m 2.9 C 4.7 C 1.0 km/h (0 Bft)
16.04.2008 02:00 4.2 C 94 % 1021.7 hPa 0.4 l/m 0.5 km/h (0 Bft) S-SW 0.00 h 0 W/m 3.3 C 4.2 C 1.7 km/h (1 Bft)
16.04.2008 03:00 4.1 C 95 % 1021.0 hPa 0.4 l/m 0.5 km/h (0 Bft) S-SW 0.00 h 0 W/m 3.4 C 4.1 C 1.6 km/h (1 Bft)
16.04.2008 04:00 3.9 C 96 % 1020.7 hPa 0.0 l/m 0.1 km/h (0 Bft) S-SW 0.00 h 0 W/m 3.3 C 3.9 C 0.5 km/h (0 Bft)
16.04.2008 05:00 4.0 C 95 % 1020.1 hPa 0.0 l/m 0.1 km/h (0 Bft) S-SW 0.00 h 0 W/m 3.3 C 4.0 C 0.8 km/h (0 Bft)
16.04.2008 06:00 3.8 C 95 % 1019.8 hPa 0.0 l/m 0.3 km/h (0 Bft) S-SW 0.00 h 9 W/m 3.0 C 3.8 C 1.3 km/h (1 Bft)
16.04.2008 07:00 4.1 C 95 % 1020.0 hPa 0.0 l/m 0.2 km/h (0 Bft) S-SW 0.00 h 39 W/m 3.4 C 4.1 C 1.3 km/h (1 Bft)
16.04.2008 08:00 4.6 C 94 % 1019.9 hPa 0.0 l/m 0.9 km/h (0 Bft) S-SW 0.07 h 108 W/m 3.8 C 4.6 C 2.1 km/h (1 Bft)
16.04.2008 09:00 5.1 C 89 % 1019.7 hPa 0.0 l/m 2.0 km/h (1 Bft) W-NW 0.27 h 215 W/m 3.4 C 5.0 C 4.1 km/h (1 Bft)
16.04.2008 10:00 6.1 C 82 % 1019.3 hPa 0.0 l/m 1.7 km/h (1 Bft) N-NW 0.02 h 185 W/m 3.2 C 6.0 C 3.6 km/h (1 Bft)
16.04.2008 11:00 6.5 C 77 % 1018.8 hPa 0.2 l/m 3.0 km/h (1 Bft) NW 0.17 h 273 W/m 2.7 C 6.2 C 5.3 km/h (1 Bft)
16.04.2008 12:00 5.7 C 79 % 1018.7 hPa 0.4 l/m 6.6 km/h (2 Bft) N-NO 0.00 h 202 W/m 2.4 C 4.5 C 12.0 km/h (2 Bft)
16.04.2008 13:00 5.0 C 89 % 1018.6 hPa 0.2 l/m 3.8 km/h (1 Bft) N-NW 0.33 h 376 W/m 3.4 C 4.5 C 6.9 km/h (2 Bft)
16.04.2008 14:00 7.6 C 75 % 1017.5 hPa 0.0 l/m 2.4 km/h (1 Bft) N-NO 0.88 h 712 W/m 3.4 C 7.5 C 4.5 km/h (1 Bft)
16.04.2008 15:00 9.5 C 63 % 1016.3 hPa 0.0 l/m 3.6 km/h (1 Bft) N-NW 0.93 h 765 W/m 2.8 C 9.5 C 6.7 km/h (2 Bft)
16.04.2008 16:00 9.5 C 57 % 1015.6 hPa 0.0 l/m 6.8 km/h (2 Bft) N-NW 0.53 h 375 W/m 1.5 C 8.9 C 10.7 km/h (2 Bft)
16.04.2008 17:00 9.0 C 59 % 1015.0 hPa 0.0 l/m 6.3 km/h (2 Bft) N 0.15 h 191 W/m 1.5 C 8.2 C 11.3 km/h (2 Bft)
16.04.2008 18:00 6.6 C 76 % 1015.3 hPa 0.2 l/m 6.4 km/h (2 Bft) N-NW 0.33 h 106 W/m 2.5 C 5.6 C 10.8 km/h (2 Bft)
16.04.2008 19:00 5.3 C 81 % 1015.0 hPa 0.0 l/m 1.0 km/h (0 Bft) O-SO 0.30 h 51 W/m 2.2 C 5.3 C 3.2 km/h (1 Bft)
16.04.2008 20:00 4.6 C 84 % 1014.7 hPa 0.0 l/m 1.3 km/h (1 Bft) SO 0.15 h 11 W/m 2.0 C 4.6 C 2.6 km/h (1 Bft)
16.04.2008 21:00 4.0 C 88 % 1014.7 hPa 0.0 l/m 0.2 km/h (0 Bft) SO 0.00 h 0 W/m 2.2 C 4.0 C 0.8 km/h (0 Bft)
16.04.2008 22:00 3.5 C 89 % 1014.6 hPa 0.0 l/m 0.5 km/h (0 Bft) SO 0.00 h 0 W/m 1.9 C 3.5 C 1.5 km/h (1 Bft)
16.04.2008 23:00 3.0 C 90 % 1014.1 hPa 0.0 l/m 1.2 km/h (1 Bft) NO 0.00 h 0 W/m 1.6 C 3.0 C 2.5 km/h (1 Bft)
17.04.2008 00:00 2.3 C 92 % 1013.8 hPa 0.0 l/m 0.4 km/h (0 Bft) O 0.00 h 0 W/m 1.2 C 2.3 C 0.9 km/h (0 Bft)
17.04.2008 01:00 1.3 C 94 % 1013.5 hPa 0.0 l/m 0.9 km/h (0 Bft) O 0.00 h 0 W/m 0.4 C 1.2 C 1.6 km/h (1 Bft)
17.04.2008 02:00 0.8 C 96 % 1012.7 hPa 0.0 l/m 0.3 km/h (0 Bft) O 0.00 h 0 W/m 0.3 C 0.8 C 1.1 km/h (0 Bft)
17.04.2008 03:00 0.7 C 97 % 1011.7 hPa 0.0 l/m 0.7 km/h (0 Bft) O 0.00 h 0 W/m 0.3 C 0.7 C 1.9 km/h (1 Bft)
17.04.2008 04:00 -0.1 C 97 % 1011.1 hPa 0.0 l/m 0.1 km/h (0 Bft) O 0.00 h 0 W/m -0.5 C -0.1 C 0.7 km/h (0 Bft)
17.04.2008 05:00 -0.5 C 97 % 1010.5 hPa 0.0 l/m 0.0 km/h (0 Bft) O 0.00 h 0 W/m -0.9 C -0.5 C 0.2 km/h (0 Bft)
17.04.2008 06:00 -0.7 C 97 % 1010.2 hPa 0.0 l/m 0.9 km/h (0 Bft) O-NO 0.00 h 9 W/m -1.1 C -0.7 C 1.8 km/h (1 Bft)
17.04.2008 07:00 -0.7 C 98 % 1009.9 hPa 0.0 l/m 0.8 km/h (0 Bft) O-NO 0.03 h 56 W/m -0.9 C -0.7 C 1.6 km/h (1 Bft)
17.04.2008 08:00 0.9 C 97 % 1009.4 hPa 0.2 l/m 1.0 km/h (0 Bft) O-NO 0.53 h 209 W/m 0.5 C 0.8 C 2.3 km/h (1 Bft)
17.04.2008 09:00 3.6 C 80 % 1008.3 hPa 0.0 l/m 2.2 km/h (1 Bft) O 0.83 h 345 W/m 0.5 C 3.4 C 5.2 km/h (1 Bft)
17.04.2008 10:00 5.4 C 74 % 1007.2 hPa 0.0 l/m 3.3 km/h (1 Bft) O-SO 0.78 h 458 W/m 1.1 C 5.1 C 6.9 km/h (2 Bft)
17.04.2008 11:00 7.0 C 69 % 1006.5 hPa 0.0 l/m 7.9 km/h (2 Bft) O-SO 0.67 h 521 W/m 1.7 C 5.6 C 13.5 km/h (3 Bft)
17.04.2008 12:00 8.0 C 66 % 1005.7 hPa 0.0 l/m 10.8 km/h (2 Bft) O-SO 0.98 h 641 W/m 2.1 C 6.1 C 17.5 km/h (3 Bft)
17.04.2008 13:00 9.5 C 63 % 1004.4 hPa 0.0 l/m 10.4 km/h (2 Bft) O-SO 1.00 h 722 W/m 2.8 C 8.0 C 16.5 km/h (3 Bft)
17.04.2008 14:00 10.4 C 60 % 1003.1 hPa 0.0 l/m 12.1 km/h (2 Bft) O-SO 1.00 h 653 W/m 3.0 C 10.1 C 19.2 km/h (3 Bft)
17.04.2008 15:00 10.9 C 58 % 1002.1 hPa 0.0 l/m 9.7 km/h (2 Bft) O-SO 0.77 h 429 W/m 2.9 C 10.9 C 17.1 km/h (3 Bft)
17.04.2008 16:00 10.6 C 58 % 1001.8 hPa 0.0 l/m 9.9 km/h (2 Bft) O-SO 0.02 h 239 W/m 2.8 C 10.6 C 16.3 km/h (3 Bft)
17.04.2008 17:00 10.5 C 59 % 1001.6 hPa 0.0 l/m 4.5 km/h (1 Bft) N-NO 0.00 h 132 W/m 2.8 C 10.5 C 8.5 km/h (2 Bft)
17.04.2008 18:00 10.2 C 60 % 1001.4 hPa 0.0 l/m 3.2 km/h (1 Bft) O 0.00 h 89 W/m 2.7 C 10.2 C 7.0 km/h (2 Bft)
17.04.2008 19:00 9.7 C 64 % 1000.8 hPa 0.0 l/m 2.3 km/h (1 Bft) N-NO 0.00 h 19 W/m 3.2 C 9.6 C 5.2 km/h (1 Bft)
17.04.2008 20:00 9.2 C 66 % 1000.5 hPa 0.0 l/m 2.3 km/h (1 Bft) NO 0.00 h 6 W/m 3.1 C 9.2 C 5.8 km/h (2 Bft)
17.04.2008 21:00 9.0 C 68 % 1000.5 hPa 0.0 l/m 1.8 km/h (1 Bft) NO 0.00 h 0 W/m 3.3 C 9.0 C 4.2 km/h (1 Bft)
17.04.2008 22:00 8.7 C 71 % 1000.5 hPa 0.0 l/m 0.8 km/h (0 Bft) N 0.00 h 0 W/m 3.7 C 8.7 C 2.1 km/h (1 Bft)
17.04.2008 23:00 8.5 C 71 % 1000.3 hPa 0.0 l/m 1.6 km/h (1 Bft) N 0.00 h 0 W/m 3.6 C 8.5 C 3.8 km/h (1 Bft)
18.04.2008 00:00 8.2 C 74 % 1000.4 hPa 0.0 l/m 3.6 km/h (1 Bft) N-NW 0.00 h 0 W/m 3.8 C 7.9 C 6.4 km/h (2 Bft)
18.04.2008 01:00 6.9 C 82 % 1000.3 hPa 0.0 l/m 4.3 km/h (1 Bft) N-NW 0.00 h 0 W/m 4.0 C 6.5 C 6.7 km/h (2 Bft)
18.04.2008 02:00 5.9 C 86 % 999.9 hPa 0.0 l/m 3.9 km/h (1 Bft) N 0.00 h 0 W/m 3.8 C 5.5 C 6.3 km/h (2 Bft)
18.04.2008 03:00 5.1 C 89 % 1000.0 hPa 0.0 l/m 3.4 km/h (1 Bft) N-NW 0.00 h 0 W/m 3.5 C 4.9 C 5.5 km/h (1 Bft)
18.04.2008 04:00 4.4 C 91 % 999.9 hPa 0.0 l/m 1.3 km/h (1 Bft) N-NW 0.00 h 0 W/m 3.0 C 4.3 C 2.8 km/h (1 Bft)
18.04.2008 05:00 3.7 C 92 % 999.4 hPa 0.0 l/m 0.7 km/h (0 Bft) N 0.00 h 0 W/m 2.5 C 3.7 C 1.8 km/h (1 Bft)
18.04.2008 06:00 3.2 C 94 % 999.2 hPa 0.0 l/m 0.3 km/h (0 Bft) N 0.08 h 13 W/m 2.4 C 3.2 C 0.7 km/h (0 Bft)
18.04.2008 07:00 3.8 C 96 % 999.6 hPa 0.0 l/m 0.1 km/h (0 Bft) N 0.05 h 51 W/m 3.1 C 3.8 C 0.2 km/h (0 Bft)
18.04.2008 08:00 4.9 C 93 % 999.6 hPa 0.0 l/m 0.1 km/h (0 Bft) N 0.00 h 93 W/m 3.8 C 4.9 C 0.4 km/h (0 Bft)
18.04.2008 09:00 6.9 C 82 % 998.9 hPa 0.0 l/m 1.2 km/h (1 Bft) N 0.40 h 297 W/m 4.0 C 6.9 C 3.1 km/h (1 Bft)
18.04.2008 10:00 8.9 C 69 % 998.2 hPa 0.0 l/m 2.2 km/h (1 Bft) NW 0.77 h 467 W/m 3.4 C 8.8 C 4.4 km/h (1 Bft)
18.04.2008 11:00 10.6 C 64 % 997.8 hPa 0.0 l/m 3.9 km/h (1 Bft) W-NW 0.98 h 663 W/m 4.1 C 10.5 C 6.2 km/h (2 Bft)
18.04.2008 12:00 12.3 C 60 % 996.7 hPa 0.0 l/m 3.9 km/h (1 Bft) W-NW 1.00 h 755 W/m 4.7 C 12.3 C 6.7 km/h (2 Bft)
18.04.2008 13:00 14.0 C 57 % 995.6 hPa 0.0 l/m 4.7 km/h (1 Bft) O-SO 1.00 h 790 W/m 5.5 C 14.0 C 8.7 km/h (2 Bft)
18.04.2008 14:00 14.8 C 56 % 994.9 hPa 0.0 l/m 6.4 km/h (2 Bft) SO 0.97 h 708 W/m 6.0 C 14.8 C 11.0 km/h (2 Bft)
18.04.2008 15:00 15.4 C 55 % 994.1 hPa 0.0 l/m 5.8 km/h (2 Bft) O-SO 0.93 h 520 W/m 6.4 C 15.4 C 10.1 km/h (2 Bft)
18.04.2008 16:00 15.9 C 56 % 993.6 hPa 0.0 l/m 6.7 km/h (2 Bft) O-SO 0.85 h 427 W/m 7.0 C 15.9 C 10.5 km/h (2 Bft)
18.04.2008 17:00 15.5 C 55 % 992.9 hPa 0.0 l/m 7.7 km/h (2 Bft) O-SO 0.02 h 183 W/m 6.4 C 15.5 C 12.3 km/h (3 Bft)
18.04.2008 18:00 14.9 C 55 % 992.3 hPa 0.0 l/m 7.0 km/h (2 Bft) O-SO 0.00 h 76 W/m 5.9 C 14.9 C 11.8 km/h (2 Bft)
18.04.2008 19:00 14.4 C 59 % 992.0 hPa 0.0 l/m 3.0 km/h (1 Bft) O-SO 0.00 h 33 W/m 6.5 C 14.4 C 5.6 km/h (1 Bft)
18.04.2008 20:00 13.9 C 63 % 991.8 hPa 0.0 l/m 1.2 km/h (1 Bft) O 0.00 h 5 W/m 6.9 C 13.9 C 3.2 km/h (1 Bft)
18.04.2008 21:00 13.6 C 65 % 991.2 hPa 0.0 l/m 1.9 km/h (1 Bft) N-NO 0.00 h 0 W/m 7.1 C 13.6 C 4.4 km/h (1 Bft)
18.04.2008 22:00 12.8 C 69 % 990.4 hPa 0.0 l/m 0.3 km/h (0 Bft) N-NO 0.00 h 0 W/m 7.2 C 12.8 C 1.5 km/h (1 Bft)
18.04.2008 23:00 12.1 C 73 % 990.1 hPa 0.0 l/m 0.6 km/h (0 Bft) N-NO 0.00 h 0 W/m 7.5 C 12.1 C 1.5 km/h (1 Bft)
19.04.2008 00:00 11.5 C 78 % 990.4 hPa 0.0 l/m 0.9 km/h (0 Bft) O 0.00 h 0 W/m 7.7 C 11.5 C 2.3 km/h (1 Bft)
19.04.2008 01:00 11.7 C 76 % 989.9 hPa 0.0 l/m 2.2 km/h (1 Bft) O-SO 0.00 h 0 W/m 7.6 C 11.7 C 4.2 km/h (1 Bft)
19.04.2008 02:00 11.4 C 78 % 990.1 hPa 0.0 l/m 1.4 km/h (1 Bft) N-NW 0.00 h 0 W/m 7.7 C 11.4 C 3.2 km/h (1 Bft)
19.04.2008 03:00 11.2 C 78 % 990.1 hPa 0.0 l/m 1.6 km/h (1 Bft) N-NW 0.00 h 0 W/m 7.5 C 11.2 C 3.3 km/h (1 Bft)
19.04.2008 04:00 10.6 C 80 % 991.2 hPa 0.0 l/m 2.1 km/h (1 Bft) S 0.00 h 0 W/m 7.4 C 10.6 C 4.2 km/h (1 Bft)
19.04.2008 05:00 10.6 C 80 % 992.7 hPa 0.0 l/m 1.1 km/h (1 Bft) SW 0.00 h 0 W/m 7.3 C 10.6 C 3.1 km/h (1 Bft)
19.04.2008 06:00 10.0 C 82 % 994.5 hPa 0.2 l/m 7.2 km/h (2 Bft) W-SW 0.00 h 0 W/m 7.0 C 9.8 C 11.6 km/h (2 Bft)
19.04.2008 07:00 8.9 C 88 % 996.4 hPa 0.2 l/m 3.7 km/h (1 Bft) W-SW 0.00 h 43 W/m 7.1 C 8.4 C 6.4 km/h (2 Bft)
19.04.2008 08:00 9.2 C 78 % 997.8 hPa 0.2 l/m 9.3 km/h (2 Bft) W-SW 0.00 h 78 W/m 5.5 C 7.8 C 14.9 km/h (3 Bft)
19.04.2008 09:00 9.6 C 81 % 998.8 hPa 0.2 l/m 3.2 km/h (1 Bft) W-SW 0.00 h 145 W/m 6.6 C 9.5 C 5.7 km/h (1 Bft)
19.04.2008 10:00 10.3 C 79 % 999.4 hPa 0.0 l/m 6.6 km/h (2 Bft) W-NW 0.00 h 201 W/m 6.9 C 10.3 C 10.6 km/h (2 Bft)
19.04.2008 11:00 10.7 C 76 % 1000.3 hPa 0.0 l/m 7.3 km/h (2 Bft) W 0.00 h 168 W/m 6.6 C 10.7 C 10.8 km/h (2 Bft)
19.04.2008 12:00 11.5 C 73 % 1000.9 hPa 0.0 l/m 6.4 km/h (2 Bft) W-NW 0.12 h 289 W/m 6.8 C 11.5 C 10.0 km/h (2 Bft)
19.04.2008 13:00 12.8 C 63 % 1001.2 hPa 0.0 l/m 11.4 km/h (2 Bft) W-NW 0.37 h 474 W/m 6.0 C 12.8 C 17.4 km/h (3 Bft)
19.04.2008 14:00 15.0 C 52 % 1001.3 hPa 0.0 l/m 13.7 km/h (3 Bft) W 0.97 h 809 W/m 5.2 C 15.0 C 21.1 km/h (4 Bft)
19.04.2008 15:00 16.5 C 46 % 1001.1 hPa 0.0 l/m 11.2 km/h (2 Bft) W-NW 0.95 h 726 W/m 4.7 C 16.5 C 17.6 km/h (3 Bft)
19.04.2008 16:00 17.0 C 44 % 1000.9 hPa 0.0 l/m 10.1 km/h (2 Bft) W-NW 0.98 h 584 W/m 4.5 C 17.0 C 15.8 km/h (3 Bft)
19.04.2008 17:00 17.0 C 44 % 1000.7 hPa 0.0 l/m 8.2 km/h (2 Bft) W-NW 1.00 h 419 W/m 4.6 C 17.0 C 12.9 km/h (3 Bft)
19.04.2008 18:00 17.1 C 44 % 1000.8 hPa 0.0 l/m 6.1 km/h (2 Bft) W-NW 1.00 h 247 W/m 4.6 C 17.1 C 10.0 km/h (2 Bft)
19.04.2008 19:00 16.1 C 46 % 1001.1 hPa 0.0 l/m 3.0 km/h (1 Bft) N-NW 0.65 h 83 W/m 4.3 C 16.1 C 5.5 km/h (1 Bft)
19.04.2008 20:00 13.1 C 58 % 1001.8 hPa 0.0 l/m 0.1 km/h (0 Bft) NW 0.03 h 10 W/m 5.0 C 13.1 C 0.5 km/h (0 Bft)
19.04.2008 21:00 10.4 C 70 % 1002.8 hPa 0.0 l/m 0.8 km/h (0 Bft) O-SO 0.00 h 0 W/m 5.2 C 10.4 C 1.4 km/h (1 Bft)
19.04.2008 22:00 8.2 C 80 % 1003.5 hPa 0.0 l/m 1.6 km/h (1 Bft) O-SO 0.00 h 0 W/m 4.9 C 8.1 C 2.5 km/h (1 Bft)
19.04.2008 23:00 7.2 C 83 % 1003.7 hPa 0.0 l/m 1.5 km/h (1 Bft) O-SO 0.00 h 0 W/m 4.4 C 7.1 C 2.3 km/h (1 Bft)
20.04.2008 00:00 6.4 C 86 % 1003.7 hPa 0.0 l/m 1.2 km/h (1 Bft) O-SO 0.00 h 0 W/m 4.2 C 6.4 C 2.0 km/h (1 Bft)
20.04.2008 01:00 5.9 C 87 % 1003.9 hPa 0.0 l/m 0.4 km/h (0 Bft) O-SO 0.00 h 0 W/m 3.9 C 5.9 C 0.9 km/h (0 Bft)
20.04.2008 02:00 5.3 C 89 % 1003.8 hPa 0.0 l/m 0.7 km/h (0 Bft) O-SO 0.00 h 0 W/m 3.6 C 5.3 C 1.0 km/h (0 Bft)
20.04.2008 03:00 4.8 C 90 % 1003.4 hPa 0.0 l/m 0.8 km/h (0 Bft) O-SO 0.00 h 0 W/m 3.3 C 4.7 C 1.3 km/h (1 Bft)
20.04.2008 04:00 4.6 C 90 % 1003.5 hPa 0.0 l/m 0.9 km/h (0 Bft) O-SO 0.00 h 0 W/m 3.1 C 4.6 C 1.8 km/h (1 Bft)
20.04.2008 05:00 4.2 C 92 % 1003.3 hPa 0.0 l/m 0.1 km/h (0 Bft) O-SO 0.00 h 0 W/m 3.0 C 4.2 C 0.5 km/h (0 Bft)
20.04.2008 06:00 3.8 C 93 % 1003.5 hPa 0.0 l/m 0.0 km/h (0 Bft) N 0.00 h 13 W/m 2.8 C 3.8 C 0.4 km/h (0 Bft)
20.04.2008 07:00 4.4 C 93 % 1003.3 hPa 0.0 l/m 0.9 km/h (0 Bft) O-SO 0.10 h 64 W/m 3.5 C 4.4 C 1.8 km/h (1 Bft)
20.04.2008 08:00 7.6 C 84 % 1003.2 hPa 0.0 l/m 1.6 km/h (1 Bft) O 0.63 h 203 W/m 4.9 C 7.5 C 3.1 km/h (1 Bft)
20.04.2008 09:00 8.9 C 79 % 1003.7 hPa 0.0 l/m 2.1 km/h (1 Bft) N-NO 0.00 h 178 W/m 5.4 C 8.8 C 4.1 km/h (1 Bft)
20.04.2008 10:00 11.8 C 68 % 1003.6 hPa 0.0 l/m 1.8 km/h (1 Bft) W-NW 0.50 h 432 W/m 6.1 C 11.8 C 4.1 km/h (1 Bft)
20.04.2008 11:00 13.5 C 63 % 1003.6 hPa 0.0 l/m 1.2 km/h (1 Bft) NW 0.23 h 352 W/m 6.7 C 13.5 C 2.9 km/h (1 Bft)
20.04.2008 12:00 15.2 C 59 % 1003.1 hPa 0.0 l/m 3.4 km/h (1 Bft) O-SO 0.30 h 392 W/m 7.2 C 15.2 C 5.8 km/h (2 Bft)
20.04.2008 13:00 16.6 C 53 % 1002.7 hPa 0.0 l/m 4.9 km/h (1 Bft) O-SO 0.37 h 458 W/m 6.9 C 16.6 C 8.0 km/h (2 Bft)
20.04.2008 14:00 18.7 C 45 % 1002.1 hPa 0.0 l/m 1.9 km/h (1 Bft) O-SO 0.85 h 543 W/m 6.5 C 18.7 C 4.2 km/h (1 Bft)
20.04.2008 15:00 20.5 C 38 % 1001.4 hPa 0.0 l/m 2.9 km/h (1 Bft) O-SO 1.00 h 687 W/m 5.5 C 20.5 C 6.1 km/h (2 Bft)
20.04.2008 16:00 22.1 C 31 % 1000.1 hPa 0.0 l/m 5.3 km/h (1 Bft) N-NW 1.00 h 555 W/m 4.1 C 22.1 C 8.8 km/h (2 Bft)
20.04.2008 17:00 20.5 C 33 % 999.8 hPa 0.0 l/m 4.3 km/h (1 Bft) O-SO 0.75 h 283 W/m 3.6 C 20.5 C 7.6 km/h (2 Bft)
20.04.2008 18:00 19.7 C 34 % 999.5 hPa 0.0 l/m 2.0 km/h (1 Bft) O 0.00 h 118 W/m 3.4 C 19.7 C 4.7 km/h (1 Bft)
20.04.2008 19:00 18.6 C 38 % 999.1 hPa 0.0 l/m 0.3 km/h (0 Bft) O 0.00 h 37 W/m 4.0 C 18.6 C 1.4 km/h (1 Bft)
20.04.2008 20:00 17.0 C 44 % 999.2 hPa 0.0 l/m 2.2 km/h (1 Bft) O 0.00 h 8 W/m 4.6 C 17.0 C 4.3 km/h (1 Bft)
20.04.2008 21:00 16.6 C 46 % 999.2 hPa 0.0 l/m 2.0 km/h (1 Bft) N-NO 0.00 h 0 W/m 5.0 C 16.6 C 4.8 km/h (1 Bft)
20.04.2008 22:00 15.5 C 52 % 999.1 hPa 0.0 l/m 1.3 km/h (1 Bft) N-NO 0.00 h 0 W/m 5.7 C 15.5 C 3.9 km/h (1 Bft)
20.04.2008 23:00 14.2 C 58 % 998.9 hPa 0.0 l/m 1.0 km/h (0 Bft) N 0.00 h 0 W/m 6.0 C 14.2 C 2.6 km/h (1 Bft)
Min-Datum _ 17.04.08 20.04.08 19.04.08 - 14.04.08 - - - 17.04.08 17.04.08 14.04.08
_ Min-Zeit 07:00 16:44 01:15 - 00:00 - - - 07:02 07:02 00:03
Minimum _ -0.9 C 26 % 989.8 hPa - 0.0 km/h (0 Bft) - - - -1.3 C -0.9 C 0.0 km/h (0 Bft)
Max-Datum _ 20.04.08 17.04.08 15.04.08 14.04.08 14.04.08 - 14.04.08 15.04.08 20.04.08 20.04.08 14.04.08
_ Max-Zeit 16:35 07:37 23:00 15:06 15:04 - 12:15 14:16 13:33 16:32 15:04
Maximum _ 22.8 C 99 % 1022.4 hPa 0.8 l/m 33.0 km/h
S-SO (5 Bft)
- 0.02 h 1130 W/m 8.7 C 22.8 C 43.5 km/h
S-SO (6 Bft)
Durchschnitt _ 8.4 C 75 % 1007.8 hPa #6.0 l/m 4.0 km/h (1 Bft) W #32:46 h 268 W/m 3.9 C 8.1 C 6.9 km/h (2 Bft)
© Kaiko 2008